sensor_id;sensor_type;location;lat;lon;timestamp;pressure;altitude;pressure_sealevel;temperature;humidity
84607;BME280;74838;47.984;7.842;2024-03-22T00:00:28;99263.75;;;12.32;72.98
84607;BME280;74838;47.984;7.842;2024-03-22T00:02:58;99266.00;;;12.40;72.99
84607;BME280;74838;47.984;7.842;2024-03-22T00:05:24;99260.84;;;12.33;72.59
84607;BME280;74838;47.984;7.842;2024-03-22T00:07:50;99262.34;;;12.29;72.85
84607;BME280;74838;47.984;7.842;2024-03-22T00:10:17;99258.09;;;12.28;72.60
84607;BME280;74838;47.984;7.842;2024-03-22T00:12:42;99253.06;;;12.32;72.61
84607;BME280;74838;47.984;7.842;2024-03-22T00:15:11;99235.53;;;12.36;72.10
84607;BME280;74838;47.984;7.842;2024-03-22T00:17:37;99247.41;;;12.44;71.85
84607;BME280;74838;47.984;7.842;2024-03-22T00:20:06;99243.78;;;12.50;71.42
84607;BME280;74838;47.984;7.842;2024-03-22T00:22:32;99240.25;;;12.45;71.84
84607;BME280;74838;47.984;7.842;2024-03-22T00:24:58;99238.59;;;12.44;72.09
84607;BME280;74838;47.984;7.842;2024-03-22T00:27:24;99240.31;;;12.34;72.13
84607;BME280;74838;47.984;7.842;2024-03-22T00:29:53;99253.31;;;12.30;72.69
84607;BME280;74838;47.984;7.842;2024-03-22T00:32:19;99253.00;;;12.27;72.92
84607;BME280;74838;47.984;7.842;2024-03-22T00:34:46;99246.47;;;12.18;73.36
84607;BME280;74838;47.984;7.842;2024-03-22T00:37:13;99245.72;;;12.22;73.78
84607;BME280;74838;47.984;7.842;2024-03-22T00:39:42;99247.16;;;12.13;74.22
84607;BME280;74838;47.984;7.842;2024-03-22T00:42:07;99242.88;;;12.12;74.05
84607;BME280;74838;47.984;7.842;2024-03-22T00:44:36;99240.16;;;12.07;73.71
84607;BME280;74838;47.984;7.842;2024-03-22T00:47:02;99242.88;;;12.12;73.61
84607;BME280;74838;47.984;7.842;2024-03-22T00:49:34;99237.53;;;12.12;73.18
84607;BME280;74838;47.984;7.842;2024-03-22T00:52:02;99240.72;;;12.09;73.37
84607;BME280;74838;47.984;7.842;2024-03-22T00:54:30;99231.00;;;12.03;73.40
84607;BME280;74838;47.984;7.842;2024-03-22T00:56:55;99231.00;;;12.03;73.56
84607;BME280;74838;47.984;7.842;2024-03-22T00:59:22;99228.28;;;12.15;72.66
84607;BME280;74838;47.984;7.842;2024-03-22T01:01:48;99229.63;;;12.17;72.84
84607;BME280;74838;47.984;7.842;2024-03-22T01:04:17;99224.72;;;12.09;72.96
84607;BME280;74838;47.984;7.842;2024-03-22T01:06:43;99220.06;;;12.16;73.09
84607;BME280;74838;47.984;7.842;2024-03-22T01:09:09;99227.63;;;12.24;73.29
84607;BME280;74838;47.984;7.842;2024-03-22T01:11:36;99223.91;;;12.25;73.64
84607;BME280;74838;47.984;7.842;2024-03-22T01:14:03;99224.47;;;12.27;73.28
84607;BME280;74838;47.984;7.842;2024-03-22T01:16:29;99223.34;;;12.23;73.71
84607;BME280;74838;47.984;7.842;2024-03-22T01:18:55;99200.84;;;12.14;73.28
84607;BME280;74838;47.984;7.842;2024-03-22T01:21:23;99179.84;;;12.01;73.22
84607;BME280;74838;47.984;7.842;2024-03-22T01:23:52;99216.41;;;12.22;73.42
84607;BME280;74838;47.984;7.842;2024-03-22T01:26:18;99218.75;;;12.19;74.17
84607;BME280;74838;47.984;7.842;2024-03-22T01:28:47;99208.25;;;12.12;73.61
84607;BME280;74838;47.984;7.842;2024-03-22T01:31:12;99213.66;;;12.17;74.50
84607;BME280;74838;47.984;7.842;2024-03-22T01:33:39;99202.91;;;12.12;74.33
84607;BME280;74838;47.984;7.842;2024-03-22T01:36:05;99200.75;;;12.09;74.29
84607;BME280;74838;47.984;7.842;2024-03-22T01:38:32;99206.84;;;11.94;74.56
84607;BME280;74838;47.984;7.842;2024-03-22T01:40:57;99202.75;;;11.86;74.96
84607;BME280;74838;47.984;7.842;2024-03-22T01:43:24;99196.91;;;11.73;75.10
84607;BME280;74838;47.984;7.842;2024-03-22T01:45:51;99197.84;;;11.67;75.43
84607;BME280;74838;47.984;7.842;2024-03-22T01:48:18;99191.13;;;11.76;75.26
84607;BME280;74838;47.984;7.842;2024-03-22T01:50:43;99180.94;;;11.73;75.04
84607;BME280;74838;47.984;7.842;2024-03-22T01:53:10;99180.41;;;11.87;74.95
84607;BME280;74838;47.984;7.842;2024-03-22T01:55:39;99175.22;;;11.81;74.49
84607;BME280;74838;47.984;7.842;2024-03-22T01:58:08;99164.97;;;11.73;74.45
84607;BME280;74838;47.984;7.842;2024-03-22T02:00:34;99161.75;;;11.87;74.22
84607;BME280;74838;47.984;7.842;2024-03-22T02:03:02;99157.16;;;11.83;74.56
84607;BME280;74838;47.984;7.842;2024-03-22T02:05:27;99157.94;;;11.83;73.80
84607;BME280;74838;47.984;7.842;2024-03-22T02:07:54;99147.94;;;11.90;73.92
84607;BME280;74838;47.984;7.842;2024-03-22T02:10:20;99147.38;;;11.88;74.25
84607;BME280;74838;47.984;7.842;2024-03-22T02:12:46;99152.63;;;11.83;73.60
84607;BME280;74838;47.984;7.842;2024-03-22T02:15:12;99148.44;;;11.87;74.04
84607;BME280;74838;47.984;7.842;2024-03-22T02:17:39;99144.00;;;11.93;73.69
84607;BME280;74838;47.984;7.842;2024-03-22T02:20:07;99144.88;;;11.82;73.37
84607;BME280;74838;47.984;7.842;2024-03-22T02:22:36;99150.53;;;11.85;73.13
84607;BME280;74838;47.984;7.842;2024-03-22T02:25:03;99145.63;;;11.77;73.29
84607;BME280;74838;47.984;7.842;2024-03-22T02:27:30;99137.19;;;11.85;73.17
84607;BME280;74838;47.984;7.842;2024-03-22T02:29:56;99139.63;;;11.87;73.53
84607;BME280;74838;47.984;7.842;2024-03-22T02:32:22;99135.13;;;11.87;74.20
84607;BME280;74838;47.984;7.842;2024-03-22T02:34:48;99130.59;;;11.88;74.08
84607;BME280;74838;47.984;7.842;2024-03-22T02:37:14;99132.53;;;11.92;74.08
84607;BME280;74838;47.984;7.842;2024-03-22T02:39:42;99128.34;;;11.80;73.40
84607;BME280;74838;47.984;7.842;2024-03-22T02:42:10;99124.00;;;11.74;73.85
84607;BME280;74838;47.984;7.842;2024-03-22T02:44:38;99122.44;;;11.78;73.90
84607;BME280;74838;47.984;7.842;2024-03-22T02:47:08;99121.06;;;11.75;74.01
84607;BME280;74838;47.984;7.842;2024-03-22T02:49:38;99114.47;;;11.78;74.10
84607;BME280;74838;47.984;7.842;2024-03-22T02:52:05;99120.91;;;11.82;74.30
84607;BME280;74838;47.984;7.842;2024-03-22T02:54:30;99110.75;;;11.79;73.83
84607;BME280;74838;47.984;7.842;2024-03-22T02:56:57;99113.97;;;11.81;74.11
84607;BME280;74838;47.984;7.842;2024-03-22T02:59:27;99114.13;;;11.74;74.16
84607;BME280;74838;47.984;7.842;2024-03-22T03:01:53;99109.28;;;11.55;74.85
84607;BME280;74838;47.984;7.842;2024-03-22T03:04:19;99111.38;;;11.53;74.70
84607;BME280;74838;47.984;7.842;2024-03-22T03:06:46;99111.22;;;11.59;74.51
84607;BME280;74838;47.984;7.842;2024-03-22T03:09:12;99101.63;;;11.59;74.84
84607;BME280;74838;47.984;7.842;2024-03-22T03:11:39;99095.16;;;11.55;74.58
84607;BME280;74838;47.984;7.842;2024-03-22T03:14:05;99097.25;;;11.53;75.01
84607;BME280;74838;47.984;7.842;2024-03-22T03:16:35;99093.88;;;11.57;76.70
84607;BME280;74838;47.984;7.842;2024-03-22T03:19:00;99097.69;;;11.61;76.42
84607;BME280;74838;47.984;7.842;2024-03-22T03:21:27;99092.34;;;11.61;78.49
84607;BME280;74838;47.984;7.842;2024-03-22T03:23:52;99089.22;;;11.64;78.56
84607;BME280;74838;47.984;7.842;2024-03-22T03:26:19;99094.63;;;11.69;77.59
84607;BME280;74838;47.984;7.842;2024-03-22T03:28:45;99094.94;;;11.72;76.74
84607;BME280;74838;47.984;7.842;2024-03-22T03:31:11;99089.94;;;11.76;78.91
84607;BME280;74838;47.984;7.842;2024-03-22T03:33:38;99092.59;;;11.59;75.18
84607;BME280;74838;47.984;7.842;2024-03-22T03:36:05;99084.28;;;11.56;76.15
84607;BME280;74838;47.984;7.842;2024-03-22T03:38:31;99087.03;;;11.61;76.80
84607;BME280;74838;47.984;7.842;2024-03-22T03:40:57;99084.91;;;11.63;77.46
84607;BME280;74838;47.984;7.842;2024-03-22T03:43:23;99081.69;;;11.61;75.16
84607;BME280;74838;47.984;7.842;2024-03-22T03:45:50;99078.16;;;11.56;75.71
84607;BME280;74838;47.984;7.842;2024-03-22T03:48:15;99082.59;;;11.66;78.29
84607;BME280;74838;47.984;7.842;2024-03-22T03:50:51;99083.13;;;11.68;79.99
84607;BME280;74838;47.984;7.842;2024-03-22T03:53:17;99078.56;;;11.64;76.41
84607;BME280;74838;47.984;7.842;2024-03-22T03:55:44;99074.91;;;11.70;75.97
84607;BME280;74838;47.984;7.842;2024-03-22T03:58:09;99073.63;;;11.56;75.21
84607;BME280;74838;47.984;7.842;2024-03-22T04:00:37;99076.22;;;11.51;75.03
84607;BME280;74838;47.984;7.842;2024-03-22T04:03:05;99073.16;;;11.59;75.36
84607;BME280;74838;47.984;7.842;2024-03-22T04:05:32;99064.41;;;11.63;74.97
84607;BME280;74838;47.984;7.842;2024-03-22T04:07:59;99063.16;;;11.66;75.48
84607;BME280;74838;47.984;7.842;2024-03-22T04:10:25;99065.91;;;11.71;75.18
84607;BME280;74838;47.984;7.842;2024-03-22T04:12:51;99061.69;;;11.75;75.31
84607;BME280;74838;47.984;7.842;2024-03-22T04:15:17;99063.31;;;11.76;75.50
84607;BME280;74838;47.984;7.842;2024-03-22T04:17:43;99061.69;;;11.75;74.75
84607;BME280;74838;47.984;7.842;2024-03-22T04:20:11;99067.00;;;11.75;74.91
84607;BME280;74838;47.984;7.842;2024-03-22T04:22:36;99061.69;;;11.75;75.31
84607;BME280;74838;47.984;7.842;2024-03-22T04:25:06;99067.81;;;11.75;75.40
84607;BME280;74838;47.984;7.842;2024-03-22T04:27:32;99068.78;;;11.69;74.55
84607;BME280;74838;47.984;7.842;2024-03-22T04:30:01;99059.41;;;11.67;74.43
84607;BME280;74838;47.984;7.842;2024-03-22T04:32:26;99062.66;;;11.69;74.67
84607;BME280;74838;47.984;7.842;2024-03-22T04:34:55;99068.38;;;11.61;75.04
84607;BME280;74838;47.984;7.842;2024-03-22T04:37:21;99075.38;;;11.67;75.16
84607;BME280;74838;47.984;7.842;2024-03-22T04:39:47;99064.25;;;11.70;75.86
84607;BME280;74838;47.984;7.842;2024-03-22T04:42:18;99076.53;;;11.71;75.76
84607;BME280;74838;47.984;7.842;2024-03-22T04:44:45;99073.81;;;11.66;75.45
84607;BME280;74838;47.984;7.842;2024-03-22T04:47:11;99069.03;;;11.68;76.15
84607;BME280;74838;47.984;7.842;2024-03-22T04:49:37;99076.22;;;11.67;76.11
84607;BME280;74838;47.984;7.842;2024-03-22T04:52:06;99078.13;;;11.72;75.84
84607;BME280;74838;47.984;7.842;2024-03-22T04:54:31;99066.94;;;11.70;75.60
84607;BME280;74838;47.984;7.842;2024-03-22T04:56:58;99066.13;;;11.69;76.27
84607;BME280;74838;47.984;7.842;2024-03-22T04:59:28;99058.94;;;11.70;75.64
84607;BME280;74838;47.984;7.842;2024-03-22T05:01:53;99056.84;;;11.72;76.04
84607;BME280;74838;47.984;7.842;2024-03-22T05:04:20;99061.84;;;11.68;75.57
84607;BME280;74838;47.984;7.842;2024-03-22T05:06:46;99050.41;;;11.68;76.39
84607;BME280;74838;47.984;7.842;2024-03-22T05:09:15;99051.44;;;11.67;76.47
84607;BME280;74838;47.984;7.842;2024-03-22T05:11:44;99052.81;;;11.69;76.34
84607;BME280;74838;47.984;7.842;2024-03-22T05:14:15;99046.94;;;11.67;77.03
84607;BME280;74838;47.984;7.842;2024-03-22T05:16:42;99051.50;;;11.72;77.20
84607;BME280;74838;47.984;7.842;2024-03-22T05:19:10;99057.34;;;11.69;77.15
84607;BME280;74838;47.984;7.842;2024-03-22T05:21:39;99049.34;;;11.69;78.63
84607;BME280;74838;47.984;7.842;2024-03-22T05:24:05;99044.75;;;11.64;77.71
84607;BME280;74838;47.984;7.842;2024-03-22T05:26:31;99047.72;;;11.68;77.52
84607;BME280;74838;47.984;7.842;2024-03-22T05:29:02;99045.00;;;11.63;77.27
84607;BME280;74838;47.984;7.842;2024-03-22T05:31:28;99046.06;;;11.62;77.64
84607;BME280;74838;47.984;7.842;2024-03-22T05:33:56;99041.06;;;11.65;77.13
84607;BME280;74838;47.984;7.842;2024-03-22T05:36:21;99045.00;;;11.63;76.78
84607;BME280;74838;47.984;7.842;2024-03-22T05:38:48;99043.97;;;11.64;76.67
84607;BME280;74838;47.984;7.842;2024-03-22T05:41:14;99044.03;;;11.69;77.17
84607;BME280;74838;47.984;7.842;2024-03-22T05:43:40;99035.47;;;11.67;77.23
84607;BME280;74838;47.984;7.842;2024-03-22T05:46:06;99033.06;;;11.65;76.99
84607;BME280;74838;47.984;7.842;2024-03-22T05:48:35;99029.56;;;11.65;77.52
84607;BME280;74838;47.984;7.842;2024-03-22T05:51:02;99045.00;;;11.63;77.74
84607;BME280;74838;47.984;7.842;2024-03-22T05:53:29;99045.56;;;11.65;78.18
84607;BME280;74838;47.984;7.842;2024-03-22T05:55:57;99047.66;;;11.63;78.38
84607;BME280;74838;47.984;7.842;2024-03-22T05:58:26;99046.06;;;11.62;78.63
84607;BME280;74838;47.984;7.842;2024-03-22T06:00:53;99035.56;;;11.56;79.49
84607;BME280;74838;47.984;7.842;2024-03-22T06:03:23;99037.34;;;11.50;79.43
84607;BME280;74838;47.984;7.842;2024-03-22T06:05:49;99035.16;;;11.47;79.58
84607;BME280;74838;47.984;7.842;2024-03-22T06:08:21;99035.72;;;11.49;79.88
84607;BME280;74838;47.984;7.842;2024-03-22T06:10:47;99036.75;;;11.48;79.58
84607;BME280;74838;47.984;7.842;2024-03-22T06:13:13;99028.78;;;11.48;79.92
84607;BME280;74838;47.984;7.842;2024-03-22T06:15:42;99030.41;;;11.49;79.40
84607;BME280;74838;47.984;7.842;2024-03-22T06:18:10;99034.09;;;11.48;79.45
84607;BME280;74838;47.984;7.842;2024-03-22T06:20:36;99034.94;;;11.49;80.18
84607;BME280;74838;47.984;7.842;2024-03-22T06:23:03;99030.41;;;11.49;80.40
84607;BME280;74838;47.984;7.842;2024-03-22T06:25:30;99029.94;;;11.52;80.94
84607;BME280;74838;47.984;7.842;2024-03-22T06:27:57;99023.09;;;11.45;80.39
84607;BME280;74838;47.984;7.842;2024-03-22T06:30:22;99023.34;;;11.43;80.55
84607;BME280;74838;47.984;7.842;2024-03-22T06:32:49;99028.22;;;11.46;81.72
84607;BME280;74838;47.984;7.842;2024-03-22T06:35:15;99010.66;;;11.45;82.53
84607;BME280;74838;47.984;7.842;2024-03-22T06:37:44;99005.88;;;11.47;82.01
84607;BME280;74838;47.984;7.842;2024-03-22T06:40:12;99012.25;;;11.46;80.48
84607;BME280;74838;47.984;7.842;2024-03-22T06:42:42;99009.13;;;11.49;82.02
84607;BME280;74838;47.984;7.842;2024-03-22T06:45:08;99014.50;;;11.54;82.16
84607;BME280;74838;47.984;7.842;2024-03-22T06:47:35;99012.66;;;11.55;82.23
84607;BME280;74838;47.984;7.842;2024-03-22T06:50:01;99013.44;;;11.55;79.95
84607;BME280;74838;47.984;7.842;2024-03-22T06:52:28;99010.00;;;11.55;78.95
84607;BME280;74838;47.984;7.842;2024-03-22T06:54:54;99016.19;;;11.60;79.25
84607;BME280;74838;47.984;7.842;2024-03-22T06:57:23;99013.28;;;11.61;78.39
84607;BME280;74838;47.984;7.842;2024-03-22T06:59:50;99006.19;;;11.67;77.52
84607;BME280;74838;47.984;7.842;2024-03-22T07:02:16;99017.81;;;11.77;76.84
84607;BME280;74838;47.984;7.842;2024-03-22T07:04:43;99016.66;;;11.90;76.14
84607;BME280;74838;47.984;7.842;2024-03-22T07:07:15;99011.38;;;11.95;75.08
84607;BME280;74838;47.984;7.842;2024-03-22T07:09:45;99006.75;;;12.06;74.20
84607;BME280;74838;47.984;7.842;2024-03-22T07:12:13;99004.28;;;12.21;74.53
84607;BME280;74838;47.984;7.842;2024-03-22T07:14:38;98994.25;;;12.28;73.51
84607;BME280;74838;47.984;7.842;2024-03-22T07:17:07;98999.72;;;12.38;73.41
84607;BME280;74838;47.984;7.842;2024-03-22T07:19:35;98991.78;;;12.43;72.81
84607;BME280;74838;47.984;7.842;2024-03-22T07:22:01;98991.25;;;12.46;72.10
84607;BME280;74838;47.984;7.842;2024-03-22T07:24:27;98994.34;;;12.59;72.27
84607;BME280;74838;47.984;7.842;2024-03-22T07:26:54;98991.69;;;12.59;71.26
84607;BME280;74838;47.984;7.842;2024-03-22T07:29:21;98996.81;;;12.66;71.19
84607;BME280;74838;47.984;7.842;2024-03-22T07:31:47;99003.47;;;12.63;71.04
84607;BME280;74838;47.984;7.842;2024-03-22T07:34:16;98993.59;;;12.64;71.67
84607;BME280;74838;47.984;7.842;2024-03-22T07:36:43;98993.97;;;12.72;71.31
84607;BME280;74838;47.984;7.842;2024-03-22T07:39:09;98987.50;;;12.89;71.25
84607;BME280;74838;47.984;7.842;2024-03-22T07:41:36;98988.59;;;12.93;70.30
84607;BME280;74838;47.984;7.842;2024-03-22T07:44:02;98983.94;;;13.05;70.06
84607;BME280;74838;47.984;7.842;2024-03-22T07:46:32;98985.03;;;13.09;69.83
84607;BME280;74838;47.984;7.842;2024-03-22T07:48:58;98989.91;;;13.17;69.69
84607;BME280;74838;47.984;7.842;2024-03-22T07:51:27;98991.84;;;13.26;69.53
84607;BME280;74838;47.984;7.842;2024-03-22T07:53:52;99000.69;;;13.32;68.95
84607;BME280;74838;47.984;7.842;2024-03-22T07:56:21;99002.34;;;13.38;69.40
84607;BME280;74838;47.984;7.842;2024-03-22T07:58:47;99021.19;;;13.53;69.15
84607;BME280;74838;47.984;7.842;2024-03-22T08:01:14;99005.16;;;13.53;69.10
84607;BME280;74838;47.984;7.842;2024-03-22T08:03:41;99004.66;;;13.61;68.43
84607;BME280;74838;47.984;7.842;2024-03-22T08:06:07;98999.63;;;13.69;68.53
84607;BME280;74838;47.984;7.842;2024-03-22T08:08:34;98993.06;;;13.81;68.04
84607;BME280;74838;47.984;7.842;2024-03-22T08:11:03;98991.50;;;13.90;67.07
84607;BME280;74838;47.984;7.842;2024-03-22T08:13:29;98995.84;;;14.01;67.35
84607;BME280;74838;47.984;7.842;2024-03-22T08:15:56;98978.56;;;14.09;67.30
84607;BME280;74838;47.984;7.842;2024-03-22T08:18:21;98979.94;;;14.21;66.25
84607;BME280;74838;47.984;7.842;2024-03-22T08:20:48;98978.16;;;14.41;66.19
84607;BME280;74838;47.984;7.842;2024-03-22T08:23:14;98968.78;;;14.39;65.32
84607;BME280;74838;47.984;7.842;2024-03-22T08:25:41;98967.50;;;14.51;65.75
84607;BME280;74838;47.984;7.842;2024-03-22T08:28:07;98959.22;;;14.57;64.57
84607;BME280;74838;47.984;7.842;2024-03-22T08:30:37;98965.41;;;14.73;64.32
84607;BME280;74838;47.984;7.842;2024-03-22T08:33:03;98963.56;;;14.88;62.80
84607;BME280;74838;47.984;7.842;2024-03-22T08:35:30;98956.06;;;14.95;62.41
84607;BME280;74838;47.984;7.842;2024-03-22T08:37:56;98959.81;;;15.09;61.93
84607;BME280;74838;47.984;7.842;2024-03-22T08:40:23;98953.47;;;15.25;61.88
84607;BME280;74838;47.984;7.842;2024-03-22T08:42:51;98947.00;;;15.31;61.43
84607;BME280;74838;47.984;7.842;2024-03-22T08:45:17;98953.16;;;15.41;61.03
84607;BME280;74838;47.984;7.842;2024-03-22T08:47:43;98928.25;;;15.40;60.66
84607;BME280;74838;47.984;7.842;2024-03-22T08:50:13;98929.31;;;15.54;60.92
84607;BME280;74838;47.984;7.842;2024-03-22T08:52:42;98914.84;;;15.55;60.36
84607;BME280;74838;47.984;7.842;2024-03-22T08:55:08;98915.88;;;15.79;61.03
84607;BME280;74838;47.984;7.842;2024-03-22T08:57:36;98919.84;;;15.91;60.30
84607;BME280;74838;47.984;7.842;2024-03-22T09:00:05;98920.06;;;16.00;59.66
84607;BME280;74838;47.984;7.842;2024-03-22T09:02:33;98911.50;;;16.03;57.60
84607;BME280;74838;47.984;7.842;2024-03-22T09:05:00;98910.34;;;16.14;58.38
84607;BME280;74838;47.984;7.842;2024-03-22T09:07:26;98904.16;;;16.28;59.30
84607;BME280;74838;47.984;7.842;2024-03-22T09:09:53;98910.81;;;16.40;59.64
84607;BME280;74838;47.984;7.842;2024-03-22T09:12:18;98901.63;;;16.51;58.67
84607;BME280;74838;47.984;7.842;2024-03-22T09:14:47;98894.03;;;16.63;57.60
84607;BME280;74838;47.984;7.842;2024-03-22T09:17:14;98896.69;;;16.68;57.35
84607;BME280;74838;47.984;7.842;2024-03-22T09:19:41;98900.38;;;16.77;57.41
84607;BME280;74838;47.984;7.842;2024-03-22T09:22:06;98902.47;;;16.85;56.33
84607;BME280;74838;47.984;7.842;2024-03-22T09:24:33;98891.97;;;16.88;57.69
84607;BME280;74838;47.984;7.842;2024-03-22T09:26:59;98892.97;;;16.97;56.33
84607;BME280;74838;47.984;7.842;2024-03-22T09:29:25;98893.72;;;17.02;55.79
84607;BME280;74838;47.984;7.842;2024-03-22T09:31:53;98895.81;;;17.10;55.38
84607;BME280;74838;47.984;7.842;2024-03-22T09:34:23;98877.47;;;17.22;55.66
84607;BME280;74838;47.984;7.842;2024-03-22T09:36:49;98882.19;;;17.35;55.96
84607;BME280;74838;47.984;7.842;2024-03-22T09:39:18;98880.72;;;17.47;56.39
84607;BME280;74838;47.984;7.842;2024-03-22T09:41:44;98878.31;;;17.46;55.28
84607;BME280;74838;47.984;7.842;2024-03-22T09:44:13;98882.03;;;17.50;56.17
84607;BME280;74838;47.984;7.842;2024-03-22T09:46:44;98877.06;;;17.62;55.65
84607;BME280;74838;47.984;7.842;2024-03-22T09:49:13;98862.00;;;17.66;55.73
84607;BME280;74838;47.984;7.842;2024-03-22T09:51:41;98871.03;;;17.75;54.91
84607;BME280;74838;47.984;7.842;2024-03-22T09:54:08;98869.28;;;17.84;55.14
84607;BME280;74838;47.984;7.842;2024-03-22T09:56:35;98866.88;;;17.82;55.61
84607;BME280;74838;47.984;7.842;2024-03-22T09:59:04;98860.72;;;17.82;56.19
84607;BME280;74838;47.984;7.842;2024-03-22T10:01:32;98862.56;;;17.86;55.95
84607;BME280;74838;47.984;7.842;2024-03-22T10:03:59;98861.69;;;17.90;55.84
84607;BME280;74838;47.984;7.842;2024-03-22T10:06:25;98862.50;;;17.91;56.93
84607;BME280;74838;47.984;7.842;2024-03-22T10:08:53;98862.19;;;17.92;57.59
84607;BME280;74838;47.984;7.842;2024-03-22T10:11:19;98862.72;;;17.94;58.45
84607;BME280;74838;47.984;7.842;2024-03-22T10:13:46;98850.84;;;17.95;57.29
84607;BME280;74838;47.984;7.842;2024-03-22T10:16:16;98844.69;;;17.95;55.41
84607;BME280;74838;47.984;7.842;2024-03-22T10:18:44;98851.03;;;18.04;54.21
84607;BME280;74838;47.984;7.842;2024-03-22T10:21:10;98845.69;;;17.99;55.46
84607;BME280;74838;47.984;7.842;2024-03-22T10:23:39;98846.50;;;17.99;55.28
84607;BME280;74838;47.984;7.842;2024-03-22T10:26:07;98837.50;;;18.09;56.98
84607;BME280;74838;47.984;7.842;2024-03-22T10:28:35;98840.97;;;18.09;54.54
84607;BME280;74838;47.984;7.842;2024-03-22T10:31:01;98834.03;;;18.08;53.48
84607;BME280;74838;47.984;7.842;2024-03-22T10:33:29;98833.09;;;18.18;53.71
84607;BME280;74838;47.984;7.842;2024-03-22T10:35:54;98826.34;;;18.20;53.34
84607;BME280;74838;47.984;7.842;2024-03-22T10:38:21;98816.16;;;18.35;53.39
84607;BME280;74838;47.984;7.842;2024-03-22T10:40:48;98816.75;;;18.51;51.83
84607;BME280;74838;47.984;7.842;2024-03-22T10:43:25;98814.91;;;18.65;51.21
84607;BME280;74838;47.984;7.842;2024-03-22T10:45:51;98800.28;;;18.70;52.17
84607;BME280;74838;47.984;7.842;2024-03-22T10:48:21;98801.41;;;18.83;51.45
84607;BME280;74838;47.984;7.842;2024-03-22T10:50:49;98799.41;;;18.88;50.98
84607;BME280;74838;47.984;7.842;2024-03-22T10:53:19;98794.97;;;18.97;51.59
84607;BME280;74838;47.984;7.842;2024-03-22T10:55:49;98792.53;;;19.01;50.94
84607;BME280;74838;47.984;7.842;2024-03-22T10:58:18;98792.09;;;19.07;49.94
84607;BME280;74838;47.984;7.842;2024-03-22T11:00:50;98779.75;;;19.06;50.26
84607;BME280;74838;47.984;7.842;2024-03-22T11:03:21;98784.88;;;19.21;50.82
84607;BME280;74838;47.984;7.842;2024-03-22T11:05:49;98785.94;;;19.20;51.28
84607;BME280;74838;47.984;7.842;2024-03-22T11:08:23;98779.97;;;19.23;50.45
84607;BME280;74838;47.984;7.842;2024-03-22T11:10:49;98771.88;;;19.23;50.45
84607;BME280;74838;47.984;7.842;2024-03-22T11:13:17;98769.69;;;19.25;50.67
84607;BME280;74838;47.984;7.842;2024-03-22T11:15:43;98766.91;;;19.30;49.51
84607;BME280;74838;47.984;7.842;2024-03-22T11:18:11;98764.09;;;19.35;49.10
84607;BME280;74838;47.984;7.842;2024-03-22T11:20:37;98756.91;;;19.44;49.76
84607;BME280;74838;47.984;7.842;2024-03-22T11:23:04;98753.53;;;19.52;48.86
84607;BME280;74838;47.984;7.842;2024-03-22T11:25:33;98744.50;;;19.43;47.34
84607;BME280;74838;47.984;7.842;2024-03-22T11:28:00;98736.94;;;19.45;48.15
84607;BME280;74838;47.984;7.842;2024-03-22T11:30:26;98736.03;;;19.49;47.38
84607;BME280;74838;47.984;7.842;2024-03-22T11:32:57;98724.53;;;19.57;47.61
84607;BME280;74838;47.984;7.842;2024-03-22T11:35:27;98723.53;;;19.66;43.59
84607;BME280;74838;47.984;7.842;2024-03-22T11:37:59;98714.22;;;19.72;44.10
84607;BME280;74838;47.984;7.842;2024-03-22T11:40:25;98711.31;;;19.82;43.61
84607;BME280;74838;47.984;7.842;2024-03-22T11:42:54;98708.91;;;19.94;42.82
84607;BME280;74838;47.984;7.842;2024-03-22T11:45:24;98708.53;;;19.87;40.49
84607;BME280;74838;47.984;7.842;2024-03-22T11:47:53;98702.84;;;19.89;38.89
84607;BME280;74838;47.984;7.842;2024-03-22T11:50:19;98691.84;;;19.85;37.54
84607;BME280;74838;47.984;7.842;2024-03-22T11:52:50;98689.72;;;19.96;37.40
84607;BME280;74838;47.984;7.842;2024-03-22T11:55:15;98685.97;;;20.05;37.20
84607;BME280;74838;47.984;7.842;2024-03-22T11:57:48;98691.44;;;20.13;35.82
84607;BME280;74838;47.984;7.842;2024-03-22T12:00:15;98678.75;;;20.14;35.20
84607;BME280;74838;47.984;7.842;2024-03-22T12:02:43;98687.66;;;20.14;37.30
84607;BME280;74838;47.984;7.842;2024-03-22T12:05:09;98673.72;;;20.21;35.76
84607;BME280;74838;47.984;7.842;2024-03-22T12:07:37;98663.84;;;20.16;35.23
84607;BME280;74838;47.984;7.842;2024-03-22T12:10:07;98670.53;;;20.19;34.92
84607;BME280;74838;47.984;7.842;2024-03-22T12:12:33;98659.50;;;20.07;36.03
84607;BME280;74838;47.984;7.842;2024-03-22T12:14:59;98654.47;;;20.14;35.35
84607;BME280;74838;47.984;7.842;2024-03-22T12:17:27;98655.50;;;20.04;33.95
84607;BME280;74838;47.984;7.842;2024-03-22T12:19:53;98648.69;;;20.07;34.56
84607;BME280;74838;47.984;7.842;2024-03-22T12:22:19;98647.69;;;20.03;33.63
84607;BME280;74838;47.984;7.842;2024-03-22T12:24:47;98640.09;;;20.05;34.91
84607;BME280;74838;47.984;7.842;2024-03-22T12:27:17;98636.47;;;20.09;34.63
84607;BME280;74838;47.984;7.842;2024-03-22T12:29:48;98630.16;;;20.14;32.35
84607;BME280;74838;47.984;7.842;2024-03-22T12:32:17;98623.53;;;20.20;30.98
84607;BME280;74838;47.984;7.842;2024-03-22T12:34:45;98617.16;;;20.16;31.02
84607;BME280;74838;47.984;7.842;2024-03-22T12:37:14;98610.03;;;20.20;29.58
84607;BME280;74838;47.984;7.842;2024-03-22T12:39:39;98609.41;;;20.23;30.37
84607;BME280;74838;47.984;7.842;2024-03-22T12:42:06;98606.66;;;20.14;31.29
84607;BME280;74838;47.984;7.842;2024-03-22T12:44:33;98591.25;;;20.15;31.29
84607;BME280;74838;47.984;7.842;2024-03-22T12:46:59;98592.69;;;20.12;32.14
84607;BME280;74838;47.984;7.842;2024-03-22T12:49:27;98594.00;;;20.23;31.51
84607;BME280;74838;47.984;7.842;2024-03-22T12:51:54;98585.94;;;20.32;31.41
84607;BME280;74838;47.984;7.842;2024-03-22T12:54:20;98575.75;;;20.29;31.58
84607;BME280;74838;47.984;7.842;2024-03-22T12:56:47;98578.03;;;20.35;31.99
84607;BME280;74838;47.984;7.842;2024-03-22T12:59:15;98570.53;;;20.32;29.58